createdAt,value
2024-04-15T00:02:01.777Z,16.26
2024-04-15T00:05:06.189Z,16.67
2024-04-15T00:08:10.053Z,16.21
2024-04-15T00:11:14.809Z,16.12
2024-04-15T00:14:18.645Z,16.42
2024-04-15T00:17:23.311Z,16.67
2024-04-15T00:20:32.124Z,16.96
2024-04-15T00:23:36.069Z,16.78
2024-04-15T00:26:39.852Z,16.47
2024-04-15T00:29:43.930Z,16.27
2024-04-15T00:32:47.721Z,16.45
2024-04-15T00:35:52.177Z,16.26
2024-04-15T00:38:56.064Z,16.59
2024-04-15T00:42:00.419Z,16.97
2024-04-15T00:45:04.165Z,16.71
2024-04-15T00:48:13.714Z,16.62
2024-04-15T00:51:18.780Z,16.42
2024-04-15T00:54:23.395Z,16.72
2024-04-15T00:57:27.714Z,17.40
2024-04-15T01:00:32.821Z,17.17
2024-04-15T01:03:37.161Z,16.73
2024-04-15T01:06:43.034Z,17.03
2024-04-15T01:09:47.021Z,17.11
2024-04-15T01:12:51.390Z,17.13
2024-04-15T01:15:58.868Z,17.24
2024-04-15T01:19:03.691Z,17.81
2024-04-15T01:22:10.626Z,17.43
2024-04-15T01:25:15.323Z,17.95
2024-04-15T01:28:21.905Z,18.23
2024-04-15T01:31:27.378Z,17.33
2024-04-15T01:34:30.586Z,16.75
2024-04-15T01:37:34.637Z,16.53
2024-04-15T01:40:38.719Z,16.79
2024-04-15T01:43:43.230Z,16.92
2024-04-15T01:46:47.023Z,16.84
2024-04-15T01:49:51.200Z,17.10
2024-04-15T01:52:55.331Z,17.57
2024-04-15T01:56:00.253Z,17.32
2024-04-15T01:59:04.071Z,17.10
2024-04-15T02:02:08.239Z,17.19
2024-04-15T02:05:12.310Z,16.98
2024-04-15T02:08:16.405Z,16.72
2024-04-15T02:11:20.363Z,16.09
2024-04-15T02:14:24.514Z,16.15
2024-04-15T02:17:28.502Z,16.94
2024-04-15T02:20:32.678Z,17.04
2024-04-15T02:23:36.854Z,15.91
2024-04-15T02:26:40.643Z,15.43
2024-04-15T02:29:44.154Z,15.88
2024-04-15T02:32:48.542Z,15.67
2024-04-15T02:35:52.274Z,15.40
2024-04-15T02:38:56.362Z,15.76
2024-04-15T02:42:01.085Z,15.51
2024-04-15T02:45:05.076Z,15.87
2024-04-15T02:48:08.972Z,15.00
2024-04-15T02:51:13.376Z,14.80
2024-04-15T02:54:17.202Z,15.20
2024-04-15T02:57:21.439Z,14.81
2024-04-15T03:00:26.368Z,15.02
2024-04-15T03:03:30.713Z,14.96
2024-04-15T03:06:34.125Z,14.53
2024-04-15T03:09:38.575Z,14.64
2024-04-15T03:12:42.483Z,14.13
2024-04-15T03:15:54.840Z,13.72
2024-04-15T03:18:58.063Z,13.83
2024-04-15T03:22:02.444Z,13.38
2024-04-15T03:25:05.898Z,13.12
2024-04-15T03:28:10.605Z,13.12
2024-04-15T03:31:13.799Z,12.77
2024-04-15T03:34:17.618Z,11.89
2024-04-15T03:37:20.640Z,11.39
2024-04-15T03:40:23.955Z,11.45
2024-04-15T03:43:28.149Z,11.39
2024-04-15T03:46:32.827Z,11.12
2024-04-15T03:49:36.094Z,11.20
2024-04-15T03:52:40.500Z,10.86
2024-04-15T03:55:52.558Z,10.75
2024-04-15T03:58:56.809Z,10.62
2024-04-15T04:02:00.764Z,10.43
2024-04-15T04:05:08.991Z,10.18
2024-04-15T04:08:14.616Z,10.39
2024-04-15T04:11:18.922Z,10.18
2024-04-15T04:14:22.413Z,10.07
2024-04-15T04:17:26.762Z,9.92
2024-04-15T04:20:32.059Z,9.75
2024-04-15T04:23:36.240Z,9.85
2024-04-15T04:26:39.943Z,9.88
2024-04-15T04:29:44.244Z,9.72
2024-04-15T04:32:48.325Z,9.78
2024-04-15T04:35:52.480Z,9.88
2024-04-15T04:38:56.291Z,9.96
2024-04-15T04:42:00.230Z,10.02
2024-04-15T04:45:04.109Z,9.83
2024-04-15T04:48:09.137Z,9.75
2024-04-15T04:51:13.263Z,9.81
2024-04-15T04:54:18.027Z,9.71
2024-04-15T04:57:22.104Z,9.77
2024-04-15T05:00:26.220Z,9.74
2024-04-15T05:03:30.378Z,9.58
2024-04-15T05:06:34.666Z,9.60
2024-04-15T05:09:39.337Z,9.68
2024-04-15T05:12:43.474Z,9.46
2024-04-15T05:15:46.657Z,9.51
2024-04-15T05:18:57.300Z,9.40
2024-04-15T05:22:00.588Z,9.49
2024-04-15T05:25:04.332Z,9.52
2024-04-15T05:28:08.038Z,9.66
2024-04-15T05:31:12.777Z,9.79
2024-04-15T05:34:16.712Z,9.71
2024-04-15T05:37:23.954Z,9.57
2024-04-15T05:40:28.033Z,9.56
2024-04-15T05:43:32.267Z,9.40
2024-04-15T05:46:39.028Z,9.35
2024-04-15T05:49:42.809Z,9.34
2024-04-15T05:52:46.287Z,9.37
2024-04-15T05:55:50.370Z,9.53
2024-04-15T05:58:53.678Z,9.68
2024-04-15T06:01:58.101Z,9.63
2024-04-15T06:05:01.707Z,9.60
2024-04-15T06:08:09.539Z,9.61
2024-04-15T06:11:14.951Z,9.63
2024-04-15T06:14:18.114Z,9.64
2024-04-15T06:17:21.962Z,9.66
2024-04-15T06:20:25.176Z,9.57
2024-04-15T06:23:30.063Z,9.68
2024-04-15T06:26:34.269Z,9.61
2024-04-15T06:29:39.018Z,9.63
2024-04-15T06:32:43.108Z,9.62
2024-04-15T06:35:48.221Z,9.74
2024-04-15T06:38:52.373Z,9.84
2024-04-15T06:41:56.409Z,9.68
2024-04-15T06:45:00.614Z,9.72
2024-04-15T06:48:05.984Z,9.86
2024-04-15T06:51:10.085Z,9.93
2024-04-15T06:54:13.989Z,9.86
2024-04-15T06:57:18.610Z,9.84
2024-04-15T07:00:21.809Z,9.87
2024-04-15T07:03:26.206Z,9.98
2024-04-15T07:06:30.085Z,9.95
2024-04-15T07:09:34.272Z,9.98
2024-04-15T07:12:39.206Z,10.01
2024-04-15T07:15:43.840Z,10.06
2024-04-15T07:18:48.838Z,10.05
2024-04-15T07:21:53.293Z,10.09
2024-04-15T07:24:56.734Z,10.10
2024-04-15T07:28:01.471Z,10.10
2024-04-15T07:31:09.849Z,10.11
2024-04-15T07:34:14.718Z,10.20
2024-04-15T07:37:18.796Z,10.28
2024-04-15T07:40:25.875Z,10.41
2024-04-15T07:43:32.646Z,10.42
2024-04-15T07:46:36.750Z,10.49
2024-04-15T07:49:44.410Z,10.49
2024-04-15T07:52:49.722Z,10.50
2024-04-15T07:55:55.191Z,10.59
2024-04-15T07:58:59.443Z,10.60
2024-04-15T08:02:06.015Z,10.62
2024-04-15T08:05:10.489Z,10.62
2024-04-15T08:08:15.595Z,10.63
2024-04-15T08:11:23.418Z,10.67
2024-04-15T08:14:29.776Z,10.67
2024-04-15T08:17:34.188Z,10.67
2024-04-15T08:20:39.173Z,10.70
2024-04-15T08:23:43.467Z,10.67
2024-04-15T08:26:48.737Z,10.78
2024-04-15T08:29:56.267Z,10.82
2024-04-15T08:33:05.915Z,10.84
2024-04-15T08:36:12.089Z,10.87
2024-04-15T08:39:16.422Z,10.87
2024-04-15T08:42:48.692Z,10.97
2024-04-15T08:46:05.284Z,10.95
2024-04-15T08:49:09.820Z,10.94
2024-04-15T08:52:18.712Z,10.95
2024-04-15T08:55:28.007Z,10.97
2024-04-15T08:58:33.582Z,10.93
2024-04-15T09:01:47.559Z,10.89
2024-04-15T15:36:56.740Z,4.22
2024-04-15T15:40:00.852Z,4.27
2024-04-15T15:43:04.430Z,4.35
2024-04-15T15:46:11.633Z,4.39
2024-04-15T15:49:16.906Z,4.38
2024-04-15T15:52:21.240Z,4.41
2024-04-15T15:55:26.158Z,4.54
2024-04-15T15:58:29.679Z,4.61
2024-04-15T16:01:33.409Z,4.60
2024-04-15T16:04:37.169Z,4.52
2024-04-15T16:07:41.025Z,4.57
2024-04-15T16:10:45.246Z,4.55
2024-04-15T16:13:48.551Z,4.48
2024-04-15T16:16:54.728Z,4.40
2024-04-15T16:19:59.255Z,4.31
2024-04-15T16:23:03.413Z,4.32
2024-04-15T16:26:07.832Z,4.34
2024-04-15T16:29:13.437Z,4.48
2024-04-15T16:32:19.291Z,4.44
2024-04-15T16:35:22.457Z,4.55
2024-04-15T16:38:26.192Z,4.63
2024-04-15T16:41:30.640Z,4.68
2024-04-15T16:44:35.164Z,4.70
2024-04-15T16:47:39.190Z,4.60
2024-04-15T16:50:43.554Z,4.55
2024-04-15T16:53:47.824Z,4.55
2024-04-15T16:56:52.640Z,4.54
2024-04-15T16:59:56.800Z,4.55
2024-04-15T17:03:01.711Z,4.63
2024-04-15T17:06:06.256Z,4.73
2024-04-15T17:09:11.239Z,4.66
2024-04-15T17:12:15.623Z,4.53
2024-04-15T17:15:21.026Z,4.63
2024-04-15T17:18:27.571Z,4.75
2024-04-15T17:21:32.636Z,4.69
2024-04-15T17:24:36.849Z,4.34
2024-04-15T17:27:43.711Z,4.21
2024-04-15T17:30:47.956Z,4.17
2024-04-15T17:33:51.888Z,4.11
2024-04-15T17:36:55.803Z,4.01
2024-04-15T17:40:00.354Z,3.92
2024-04-15T17:43:04.737Z,3.90
2024-04-15T17:46:10.657Z,3.96
2024-04-15T17:49:14.536Z,4.11
2024-04-15T17:52:19.305Z,4.12
2024-04-15T17:55:23.350Z,4.03
2024-04-15T17:58:28.025Z,3.98
2024-04-15T18:01:33.181Z,3.95
2024-04-15T18:04:38.083Z,3.95
2024-04-15T18:07:42.468Z,3.82
2024-04-15T18:10:47.085Z,3.78
2024-04-15T18:13:52.904Z,3.68
2024-04-15T18:16:58.305Z,3.54
2024-04-15T18:20:02.698Z,3.48
2024-04-15T18:23:06.723Z,3.48
2024-04-15T18:26:13.561Z,3.50
2024-04-15T18:29:18.442Z,3.52
2024-04-15T18:32:22.349Z,3.48
2024-04-15T18:35:27.334Z,3.42
2024-04-15T18:38:31.137Z,3.24
2024-04-15T18:41:36.069Z,3.29
2024-04-15T18:44:41.515Z,3.36
2024-04-15T18:47:46.234Z,3.41
2024-04-15T18:50:50.678Z,3.45
2024-04-15T18:53:54.386Z,3.35
2024-04-15T18:56:58.466Z,3.24
2024-04-15T19:00:02.869Z,3.15
2024-04-15T19:03:07.570Z,3.08
2024-04-15T19:06:12.132Z,3.00
2024-04-15T19:09:16.117Z,2.85
2024-04-15T19:12:21.269Z,2.88
2024-04-15T19:15:25.322Z,2.89
2024-04-15T19:18:30.028Z,2.91
2024-04-15T19:21:33.686Z,3.03
2024-04-15T19:24:38.546Z,3.11
2024-04-15T19:27:42.731Z,3.20
2024-04-15T19:30:47.508Z,3.21
2024-04-15T19:33:51.637Z,3.00
2024-04-15T19:36:56.290Z,2.85
2024-04-15T19:40:00.929Z,2.74
2024-04-15T19:43:06.240Z,2.73
2024-04-15T19:46:10.440Z,2.78
2024-04-15T19:49:15.652Z,2.85
2024-04-15T19:52:19.916Z,2.79
2024-04-15T19:55:24.467Z,2.72
2024-04-15T19:58:29.398Z,2.77
2024-04-15T20:01:33.828Z,2.87
2024-04-15T20:04:37.905Z,2.86
2024-04-15T20:07:43.252Z,2.86
2024-04-15T20:10:47.788Z,2.92
2024-04-15T20:13:52.037Z,2.97
2024-04-15T20:17:01.651Z,3.01
2024-04-15T20:20:13.896Z,3.04
2024-04-15T20:23:18.971Z,3.07
2024-04-15T20:26:23.678Z,3.11
2024-04-15T20:29:27.333Z,3.08
2024-04-15T20:32:31.759Z,3.03
2024-04-15T20:35:35.683Z,3.00
2024-04-15T20:38:41.441Z,2.99
2024-04-15T20:41:45.390Z,2.93
2024-04-15T20:44:49.604Z,2.78
2024-04-15T20:47:53.644Z,2.70
2024-04-15T20:50:57.961Z,2.63
2024-04-15T20:54:03.291Z,2.55
2024-04-15T20:57:07.851Z,2.60
2024-04-15T21:00:12.243Z,2.70
2024-04-15T21:03:16.650Z,2.81
2024-04-15T21:06:23.236Z,2.93
2024-04-15T21:09:29.016Z,2.90
2024-04-15T21:12:33.189Z,2.86
2024-04-15T21:15:37.724Z,2.84
2024-04-15T21:18:41.509Z,2.74
2024-04-15T21:21:45.837Z,2.50
2024-04-15T21:24:50.668Z,2.29
2024-04-15T21:27:57.672Z,2.30
2024-04-15T21:31:01.712Z,2.37
2024-04-15T21:34:06.236Z,2.44
2024-04-15T21:37:10.237Z,2.51
2024-04-15T21:40:14.455Z,2.64
2024-04-15T21:43:18.474Z,2.72
2024-04-15T21:46:22.728Z,2.70
2024-04-15T21:49:26.680Z,2.67
2024-04-15T21:52:31.228Z,2.61
2024-04-15T21:55:35.496Z,2.58
2024-04-15T21:58:44.104Z,2.54
2024-04-15T22:01:47.254Z,2.51
2024-04-15T22:04:59.956Z,2.55
2024-04-15T22:08:06.750Z,2.71
2024-04-15T22:11:11.126Z,2.77
2024-04-15T22:14:15.188Z,2.78
2024-04-15T22:17:19.494Z,2.83
2024-04-15T22:20:23.854Z,2.85
2024-04-15T22:23:28.069Z,2.88
2024-04-15T22:26:31.874Z,2.81
2024-04-15T22:29:36.361Z,2.85
2024-04-15T22:32:40.293Z,2.90
2024-04-15T22:35:44.955Z,2.86
2024-04-15T22:38:48.936Z,2.87
2024-04-15T22:41:52.515Z,2.94
2024-04-15T22:44:56.501Z,3.03
2024-04-15T22:48:00.774Z,3.10
2024-04-15T22:51:04.933Z,3.18
2024-04-15T22:54:10.209Z,3.27
2024-04-15T22:57:14.148Z,3.30
2024-04-15T23:00:21.295Z,3.35
2024-04-15T23:03:26.643Z,3.45
2024-04-15T23:06:31.217Z,3.57
2024-04-15T23:09:35.280Z,3.70
2024-04-15T23:12:39.521Z,4.12
2024-04-15T23:15:43.853Z,7.21
2024-04-15T23:18:49.015Z,9.86
2024-04-15T23:21:52.950Z,11.82
2024-04-15T23:24:58.990Z,13.16
2024-04-15T23:28:04.926Z,14.09
2024-04-15T23:31:09.557Z,14.81
2024-04-15T23:34:14.773Z,15.46
2024-04-15T23:37:18.930Z,15.88
2024-04-15T23:40:22.753Z,16.15
2024-04-15T23:43:27.190Z,16.39
2024-04-15T23:46:50.012Z,16.85
2024-04-15T23:50:12.964Z,16.93
2024-04-15T23:53:35.786Z,17.27
2024-04-15T23:56:58.633Z,17.34
